sensor_id;sensor_type;location;lat;lon;timestamp;temperature;humidity
20463;DHT22;10390;53.566;9.980;2022-07-12T00:02:00;26.10;1.00
20463;DHT22;10390;53.566;9.980;2022-07-12T00:04:26;26.20;1.00
20463;DHT22;10390;53.566;9.980;2022-07-12T00:06:52;26.20;1.00
20463;DHT22;10390;53.566;9.980;2022-07-12T00:09:17;26.20;1.00
20463;DHT22;10390;53.566;9.980;2022-07-12T00:11:43;26.20;1.00
20463;DHT22;10390;53.566;9.980;2022-07-12T00:14:09;26.20;1.00
20463;DHT22;10390;53.566;9.980;2022-07-12T00:16:35;26.20;1.00
20463;DHT22;10390;53.566;9.980;2022-07-12T00:19:01;26.20;1.00
20463;DHT22;10390;53.566;9.980;2022-07-12T00:21:27;26.10;1.00
20463;DHT22;10390;53.566;9.980;2022-07-12T00:23:53;26.10;1.00
20463;DHT22;10390;53.566;9.980;2022-07-12T00:26:19;26.10;1.00
20463;DHT22;10390;53.566;9.980;2022-07-12T00:28:45;26.10;1.00
20463;DHT22;10390;53.566;9.980;2022-07-12T00:31:11;26.10;1.00
20463;DHT22;10390;53.566;9.980;2022-07-12T00:33:37;26.10;1.00
20463;DHT22;10390;53.566;9.980;2022-07-12T00:36:03;26.10;1.00
20463;DHT22;10390;53.566;9.980;2022-07-12T00:38:29;26.10;1.00
20463;DHT22;10390;53.566;9.980;2022-07-12T00:40:54;26.10;1.00
20463;DHT22;10390;53.566;9.980;2022-07-12T00:43:21;26.10;1.00
20463;DHT22;10390;53.566;9.980;2022-07-12T00:45:47;26.10;1.00
20463;DHT22;10390;53.566;9.980;2022-07-12T00:48:12;26.10;1.00
20463;DHT22;10390;53.566;9.980;2022-07-12T00:50:39;26.10;1.00
20463;DHT22;10390;53.566;9.980;2022-07-12T00:53:04;26.10;1.00
20463;DHT22;10390;53.566;9.980;2022-07-12T00:55:30;26.10;1.00
20463;DHT22;10390;53.566;9.980;2022-07-12T00:57:57;26.10;1.00
20463;DHT22;10390;53.566;9.980;2022-07-12T01:00:25;26.10;1.00
20463;DHT22;10390;53.566;9.980;2022-07-12T01:02:54;26.10;1.00
20463;DHT22;10390;53.566;9.980;2022-07-12T01:05:20;26.10;1.00
20463;DHT22;10390;53.566;9.980;2022-07-12T01:07:46;26.10;1.00
20463;DHT22;10390;53.566;9.980;2022-07-12T01:10:12;26.10;1.00
20463;DHT22;10390;53.566;9.980;2022-07-12T01:12:38;26.10;1.00
20463;DHT22;10390;53.566;9.980;2022-07-12T01:15:08;26.10;1.00
20463;DHT22;10390;53.566;9.980;2022-07-12T01:17:35;26.10;1.00
20463;DHT22;10390;53.566;9.980;2022-07-12T01:20:03;26.10;1.00
20463;DHT22;10390;53.566;9.980;2022-07-12T01:22:32;26.10;1.00
20463;DHT22;10390;53.566;9.980;2022-07-12T01:25:00;26.10;1.00
20463;DHT22;10390;53.566;9.980;2022-07-12T01:27:26;26.00;1.00
20463;DHT22;10390;53.566;9.980;2022-07-12T01:29:53;26.00;1.00
20463;DHT22;10390;53.566;9.980;2022-07-12T01:32:20;26.10;1.00
20463;DHT22;10390;53.566;9.980;2022-07-12T01:35:05;26.00;1.00
20463;DHT22;10390;53.566;9.980;2022-07-12T01:37:36;26.00;1.00
20463;DHT22;10390;53.566;9.980;2022-07-12T01:40:06;26.00;1.00
20463;DHT22;10390;53.566;9.980;2022-07-12T01:42:34;26.00;1.00
20463;DHT22;10390;53.566;9.980;2022-07-12T01:45:01;26.00;1.00
20463;DHT22;10390;53.566;9.980;2022-07-12T01:47:30;26.00;1.00
20463;DHT22;10390;53.566;9.980;2022-07-12T01:49:56;26.00;1.00
20463;DHT22;10390;53.566;9.980;2022-07-12T01:52:23;26.00;1.00
20463;DHT22;10390;53.566;9.980;2022-07-12T01:54:49;26.00;1.00
20463;DHT22;10390;53.566;9.980;2022-07-12T01:57:16;26.00;1.00
20463;DHT22;10390;53.566;9.980;2022-07-12T01:59:42;26.00;1.00
20463;DHT22;10390;53.566;9.980;2022-07-12T02:02:08;26.00;1.00
20463;DHT22;10390;53.566;9.980;2022-07-12T02:04:35;26.00;1.00
20463;DHT22;10390;53.566;9.980;2022-07-12T02:07:01;26.00;1.00
20463;DHT22;10390;53.566;9.980;2022-07-12T02:09:27;26.00;1.00
20463;DHT22;10390;53.566;9.980;2022-07-12T02:11:53;26.00;1.00
20463;DHT22;10390;53.566;9.980;2022-07-12T02:14:19;26.10;1.00
20463;DHT22;10390;53.566;9.980;2022-07-12T02:16:46;26.00;1.00
20463;DHT22;10390;53.566;9.980;2022-07-12T02:19:12;26.00;1.00
20463;DHT22;10390;53.566;9.980;2022-07-12T02:21:39;26.00;1.00
20463;DHT22;10390;53.566;9.980;2022-07-12T02:24:07;26.00;1.00
20463;DHT22;10390;53.566;9.980;2022-07-12T02:26:34;26.00;1.00
20463;DHT22;10390;53.566;9.980;2022-07-12T02:29:01;26.00;1.00
20463;DHT22;10390;53.566;9.980;2022-07-12T02:31:27;26.00;1.00
20463;DHT22;10390;53.566;9.980;2022-07-12T02:33:53;26.00;1.00
20463;DHT22;10390;53.566;9.980;2022-07-12T02:36:19;26.00;1.00
20463;DHT22;10390;53.566;9.980;2022-07-12T02:38:45;26.00;1.00
20463;DHT22;10390;53.566;9.980;2022-07-12T02:41:10;26.00;1.00
20463;DHT22;10390;53.566;9.980;2022-07-12T02:43:36;26.00;1.00
20463;DHT22;10390;53.566;9.980;2022-07-12T02:46:07;26.00;1.00
20463;DHT22;10390;53.566;9.980;2022-07-12T02:48:37;26.00;1.00
20463;DHT22;10390;53.566;9.980;2022-07-12T02:51:04;25.90;1.00
20463;DHT22;10390;53.566;9.980;2022-07-12T02:53:31;25.90;1.00
20463;DHT22;10390;53.566;9.980;2022-07-12T02:55:59;25.90;1.00
20463;DHT22;10390;53.566;9.980;2022-07-12T02:58:25;25.90;1.00
20463;DHT22;10390;53.566;9.980;2022-07-12T03:00:51;25.90;1.00
20463;DHT22;10390;53.566;9.980;2022-07-12T03:03:16;25.90;1.00
20463;DHT22;10390;53.566;9.980;2022-07-12T03:05:42;25.90;1.00
20463;DHT22;10390;53.566;9.980;2022-07-12T03:08:09;25.90;1.00
20463;DHT22;10390;53.566;9.980;2022-07-12T03:10:36;25.90;1.00
20463;DHT22;10390;53.566;9.980;2022-07-12T03:13:03;25.80;1.00
20463;DHT22;10390;53.566;9.980;2022-07-12T03:15:29;25.90;1.00
20463;DHT22;10390;53.566;9.980;2022-07-12T03:17:56;25.90;1.00
20463;DHT22;10390;53.566;9.980;2022-07-12T03:20:23;25.90;1.00
20463;DHT22;10390;53.566;9.980;2022-07-12T03:22:49;25.90;1.00
20463;DHT22;10390;53.566;9.980;2022-07-12T03:25:17;25.90;1.00
20463;DHT22;10390;53.566;9.980;2022-07-12T03:27:44;25.90;1.00
20463;DHT22;10390;53.566;9.980;2022-07-12T03:30:10;25.90;1.00
20463;DHT22;10390;53.566;9.980;2022-07-12T03:32:37;25.90;1.00
20463;DHT22;10390;53.566;9.980;2022-07-12T03:35:03;25.80;1.00
20463;DHT22;10390;53.566;9.980;2022-07-12T03:37:48;25.80;1.00
20463;DHT22;10390;53.566;9.980;2022-07-12T03:40:16;25.80;1.00
20463;DHT22;10390;53.566;9.980;2022-07-12T03:42:43;25.80;1.00
20463;DHT22;10390;53.566;9.980;2022-07-12T03:45:10;25.80;1.00
20463;DHT22;10390;53.566;9.980;2022-07-12T03:47:37;25.80;1.00
20463;DHT22;10390;53.566;9.980;2022-07-12T03:50:04;25.80;1.00
20463;DHT22;10390;53.566;9.980;2022-07-12T03:52:34;25.80;1.00
20463;DHT22;10390;53.566;9.980;2022-07-12T03:55:00;25.80;1.00
20463;DHT22;10390;53.566;9.980;2022-07-12T03:57:29;25.80;1.00
20463;DHT22;10390;53.566;9.980;2022-07-12T03:59:56;25.80;1.00
20463;DHT22;10390;53.566;9.980;2022-07-12T04:02:22;25.80;1.00
20463;DHT22;10390;53.566;9.980;2022-07-12T04:04:49;25.80;1.00
20463;DHT22;10390;53.566;9.980;2022-07-12T04:07:15;25.80;1.00
20463;DHT22;10390;53.566;9.980;2022-07-12T04:09:41;25.80;1.00
20463;DHT22;10390;53.566;9.980;2022-07-12T04:12:07;25.80;1.00
20463;DHT22;10390;53.566;9.980;2022-07-12T04:14:34;25.80;1.00
20463;DHT22;10390;53.566;9.980;2022-07-12T04:17:00;25.80;1.00
20463;DHT22;10390;53.566;9.980;2022-07-12T04:19:25;25.80;1.00
20463;DHT22;10390;53.566;9.980;2022-07-12T04:21:57;25.80;1.00
20463;DHT22;10390;53.566;9.980;2022-07-12T04:24:23;25.80;1.00
20463;DHT22;10390;53.566;9.980;2022-07-12T04:26:49;25.80;1.00
20463;DHT22;10390;53.566;9.980;2022-07-12T04:29:21;25.80;1.00
20463;DHT22;10390;53.566;9.980;2022-07-12T04:31:48;25.80;1.00
20463;DHT22;10390;53.566;9.980;2022-07-12T04:34:13;25.80;1.00
20463;DHT22;10390;53.566;9.980;2022-07-12T04:36:46;25.70;1.00
20463;DHT22;10390;53.566;9.980;2022-07-12T04:39:13;25.80;1.00
20463;DHT22;10390;53.566;9.980;2022-07-12T04:41:38;25.80;1.00
20463;DHT22;10390;53.566;9.980;2022-07-12T04:44:05;25.70;1.00
20463;DHT22;10390;53.566;9.980;2022-07-12T04:46:32;25.70;1.00
20463;DHT22;10390;53.566;9.980;2022-07-12T04:48:59;25.70;1.00
20463;DHT22;10390;53.566;9.980;2022-07-12T04:51:25;25.70;1.00
20463;DHT22;10390;53.566;9.980;2022-07-12T04:53:52;25.80;1.00
20463;DHT22;10390;53.566;9.980;2022-07-12T04:56:18;25.70;1.00
20463;DHT22;10390;53.566;9.980;2022-07-12T04:58:44;25.80;1.00
20463;DHT22;10390;53.566;9.980;2022-07-12T05:01:09;25.80;1.00
20463;DHT22;10390;53.566;9.980;2022-07-12T05:03:35;25.80;1.00
20463;DHT22;10390;53.566;9.980;2022-07-12T05:06:01;25.80;1.00
20463;DHT22;10390;53.566;9.980;2022-07-12T05:08:27;25.70;1.00
20463;DHT22;10390;53.566;9.980;2022-07-12T05:10:52;25.80;1.00
20463;DHT22;10390;53.566;9.980;2022-07-12T05:13:18;25.80;1.00
20463;DHT22;10390;53.566;9.980;2022-07-12T05:15:44;25.80;1.00
20463;DHT22;10390;53.566;9.980;2022-07-12T05:18:10;25.80;1.00
20463;DHT22;10390;53.566;9.980;2022-07-12T05:20:35;25.80;1.00
20463;DHT22;10390;53.566;9.980;2022-07-12T05:23:01;25.80;1.00
20463;DHT22;10390;53.566;9.980;2022-07-12T05:25:27;25.80;1.00
20463;DHT22;10390;53.566;9.980;2022-07-12T05:27:52;25.80;1.00
20463;DHT22;10390;53.566;9.980;2022-07-12T05:30:18;25.70;1.00
20463;DHT22;10390;53.566;9.980;2022-07-12T05:32:44;25.80;1.00
20463;DHT22;10390;53.566;9.980;2022-07-12T05:35:10;25.80;1.00
20463;DHT22;10390;53.566;9.980;2022-07-12T05:37:35;25.80;1.00
20463;DHT22;10390;53.566;9.980;2022-07-12T05:40:01;25.80;1.00
20463;DHT22;10390;53.566;9.980;2022-07-12T05:42:27;25.80;1.00
20463;DHT22;10390;53.566;9.980;2022-07-12T05:44:53;25.80;1.00
20463;DHT22;10390;53.566;9.980;2022-07-12T05:47:19;25.80;1.00
20463;DHT22;10390;53.566;9.980;2022-07-12T05:49:45;25.80;1.00
20463;DHT22;10390;53.566;9.980;2022-07-12T05:52:10;25.80;1.00
20463;DHT22;10390;53.566;9.980;2022-07-12T05:54:55;25.80;1.00
20463;DHT22;10390;53.566;9.980;2022-07-12T05:57:21;25.80;1.00
20463;DHT22;10390;53.566;9.980;2022-07-12T05:59:46;25.80;1.00
20463;DHT22;10390;53.566;9.980;2022-07-12T06:02:12;25.80;1.00
20463;DHT22;10390;53.566;9.980;2022-07-12T06:04:38;25.80;1.00
20463;DHT22;10390;53.566;9.980;2022-07-12T06:07:04;25.80;1.00
20463;DHT22;10390;53.566;9.980;2022-07-12T06:09:30;25.80;1.00
20463;DHT22;10390;53.566;9.980;2022-07-12T06:11:55;25.80;1.00
20463;DHT22;10390;53.566;9.980;2022-07-12T06:14:21;25.80;1.00
20463;DHT22;10390;53.566;9.980;2022-07-12T06:16:47;25.80;1.00
20463;DHT22;10390;53.566;9.980;2022-07-12T06:19:13;25.80;1.00
20463;DHT22;10390;53.566;9.980;2022-07-12T06:21:38;25.80;1.00
20463;DHT22;10390;53.566;9.980;2022-07-12T06:24:04;25.80;1.00
20463;DHT22;10390;53.566;9.980;2022-07-12T06:26:31;25.80;1.00
20463;DHT22;10390;53.566;9.980;2022-07-12T06:28:56;25.80;1.00
20463;DHT22;10390;53.566;9.980;2022-07-12T06:31:22;25.80;1.00
20463;DHT22;10390;53.566;9.980;2022-07-12T06:33:51;25.80;1.00
20463;DHT22;10390;53.566;9.980;2022-07-12T06:36:17;25.80;1.00
20463;DHT22;10390;53.566;9.980;2022-07-12T06:38:43;25.80;1.00
20463;DHT22;10390;53.566;9.980;2022-07-12T06:41:08;25.80;1.00
20463;DHT22;10390;53.566;9.980;2022-07-12T06:43:34;25.80;1.00
20463;DHT22;10390;53.566;9.980;2022-07-12T06:46:00;25.80;1.00
20463;DHT22;10390;53.566;9.980;2022-07-12T06:48:26;25.80;1.00
20463;DHT22;10390;53.566;9.980;2022-07-12T06:50:51;25.80;1.00
20463;DHT22;10390;53.566;9.980;2022-07-12T06:53:18;25.80;1.00
20463;DHT22;10390;53.566;9.980;2022-07-12T06:55:44;25.80;1.00
20463;DHT22;10390;53.566;9.980;2022-07-12T06:58:10;25.80;1.00
20463;DHT22;10390;53.566;9.980;2022-07-12T07:00:35;25.80;1.00
20463;DHT22;10390;53.566;9.980;2022-07-12T07:03:01;25.80;1.00
20463;DHT22;10390;53.566;9.980;2022-07-12T07:05:27;25.80;1.00
20463;DHT22;10390;53.566;9.980;2022-07-12T07:07:53;25.80;1.00
20463;DHT22;10390;53.566;9.980;2022-07-12T07:10:20;25.80;1.00
20463;DHT22;10390;53.566;9.980;2022-07-12T07:12:45;25.80;1.00
20463;DHT22;10390;53.566;9.980;2022-07-12T07:15:11;25.80;1.00
20463;DHT22;10390;53.566;9.980;2022-07-12T07:17:39;25.80;1.00
20463;DHT22;10390;53.566;9.980;2022-07-12T07:20:05;25.80;1.00
20463;DHT22;10390;53.566;9.980;2022-07-12T07:22:31;25.80;1.00
20463;DHT22;10390;53.566;9.980;2022-07-12T07:24:58;25.80;1.00
20463;DHT22;10390;53.566;9.980;2022-07-12T07:27:23;25.80;1.00
20463;DHT22;10390;53.566;9.980;2022-07-12T07:29:49;25.90;1.00
20463;DHT22;10390;53.566;9.980;2022-07-12T07:32:33;25.80;1.00
20463;DHT22;10390;53.566;9.980;2022-07-12T07:34:59;25.90;1.00
20463;DHT22;10390;53.566;9.980;2022-07-12T07:37:25;25.90;1.00
20463;DHT22;10390;53.566;9.980;2022-07-12T07:39:51;25.90;1.00
20463;DHT22;10390;53.566;9.980;2022-07-12T07:42:16;25.90;1.00
20463;DHT22;10390;53.566;9.980;2022-07-12T07:44:42;25.90;1.00
20463;DHT22;10390;53.566;9.980;2022-07-12T07:47:08;25.90;1.00
20463;DHT22;10390;53.566;9.980;2022-07-12T07:49:34;25.90;1.00
20463;DHT22;10390;53.566;9.980;2022-07-12T07:52:01;25.90;1.00
20463;DHT22;10390;53.566;9.980;2022-07-12T07:54:27;25.90;1.00
20463;DHT22;10390;53.566;9.980;2022-07-12T07:56:52;26.00;1.00
20463;DHT22;10390;53.566;9.980;2022-07-12T07:59:19;26.00;1.00
20463;DHT22;10390;53.566;9.980;2022-07-12T08:01:45;26.00;1.00
20463;DHT22;10390;53.566;9.980;2022-07-12T08:04:12;26.00;1.00
20463;DHT22;10390;53.566;9.980;2022-07-12T08:06:38;26.00;1.00
20463;DHT22;10390;53.566;9.980;2022-07-12T08:09:04;26.00;1.00
20463;DHT22;10390;53.566;9.980;2022-07-12T08:11:31;26.00;1.00
20463;DHT22;10390;53.566;9.980;2022-07-12T08:13:57;26.00;1.00
20463;DHT22;10390;53.566;9.980;2022-07-12T08:16:23;26.00;1.00
20463;DHT22;10390;53.566;9.980;2022-07-12T08:18:49;26.00;1.00
20463;DHT22;10390;53.566;9.980;2022-07-12T08:21:15;26.00;1.00
20463;DHT22;10390;53.566;9.980;2022-07-12T08:23:41;26.00;1.00
20463;DHT22;10390;53.566;9.980;2022-07-12T08:26:07;26.00;1.00
20463;DHT22;10390;53.566;9.980;2022-07-12T08:28:32;26.00;1.00
20463;DHT22;10390;53.566;9.980;2022-07-12T08:30:58;26.00;1.00
20463;DHT22;10390;53.566;9.980;2022-07-12T08:33:24;26.00;1.00
20463;DHT22;10390;53.566;9.980;2022-07-12T08:35:50;26.10;1.00
20463;DHT22;10390;53.566;9.980;2022-07-12T08:38:15;26.00;1.00
20463;DHT22;10390;53.566;9.980;2022-07-12T08:40:42;26.00;1.00
20463;DHT22;10390;53.566;9.980;2022-07-12T08:43:08;26.00;1.00
20463;DHT22;10390;53.566;9.980;2022-07-12T08:45:34;26.00;1.00
20463;DHT22;10390;53.566;9.980;2022-07-12T08:48:00;26.00;1.00
20463;DHT22;10390;53.566;9.980;2022-07-12T08:50:27;26.00;1.00
20463;DHT22;10390;53.566;9.980;2022-07-12T08:52:54;26.10;1.00
20463;DHT22;10390;53.566;9.980;2022-07-12T08:55:29;26.10;1.00
20463;DHT22;10390;53.566;9.980;2022-07-12T08:57:59;26.10;1.00
20463;DHT22;10390;53.566;9.980;2022-07-12T09:00:26;26.10;1.00
20463;DHT22;10390;53.566;9.980;2022-07-12T09:03:00;26.10;1.00
20463;DHT22;10390;53.566;9.980;2022-07-12T09:05:31;26.10;1.00
20463;DHT22;10390;53.566;9.980;2022-07-12T09:08:08;26.10;1.00
20463;DHT22;10390;53.566;9.980;2022-07-12T09:10:56;26.20;1.00
20463;DHT22;10390;53.566;9.980;2022-07-12T09:13:49;26.20;1.00
20463;DHT22;10390;53.566;9.980;2022-07-12T09:16:18;26.20;1.00
20463;DHT22;10390;53.566;9.980;2022-07-12T09:18:46;26.20;1.00
20463;DHT22;10390;53.566;9.980;2022-07-12T09:21:26;26.20;1.00
20463;DHT22;10390;53.566;9.980;2022-07-12T09:23:54;26.20;1.00
20463;DHT22;10390;53.566;9.980;2022-07-12T09:26:21;26.20;1.00
20463;DHT22;10390;53.566;9.980;2022-07-12T09:28:49;26.30;1.00
20463;DHT22;10390;53.566;9.980;2022-07-12T09:31:16;26.30;1.00
20463;DHT22;10390;53.566;9.980;2022-07-12T09:33:59;26.30;1.00
20463;DHT22;10390;53.566;9.980;2022-07-12T09:36:55;26.30;1.00
20463;DHT22;10390;53.566;9.980;2022-07-12T09:39:22;26.30;1.00
20463;DHT22;10390;53.566;9.980;2022-07-12T09:41:51;26.30;1.00
20463;DHT22;10390;53.566;9.980;2022-07-12T09:44:18;26.30;1.00
20463;DHT22;10390;53.566;9.980;2022-07-12T09:46:45;26.40;1.00
20463;DHT22;10390;53.566;9.980;2022-07-12T09:49:13;26.30;1.00
20463;DHT22;10390;53.566;9.980;2022-07-12T09:51:40;26.40;1.00
20463;DHT22;10390;53.566;9.980;2022-07-12T09:54:09;26.40;1.00
20463;DHT22;10390;53.566;9.980;2022-07-12T09:56:42;26.40;1.00
20463;DHT22;10390;53.566;9.980;2022-07-12T09:59:10;26.40;1.00
20463;DHT22;10390;53.566;9.980;2022-07-12T10:01:38;26.40;1.00
20463;DHT22;10390;53.566;9.980;2022-07-12T10:04:04;26.40;1.00
20463;DHT22;10390;53.566;9.980;2022-07-12T10:06:31;26.40;1.00
20463;DHT22;10390;53.566;9.980;2022-07-12T10:08:57;26.40;1.00
20463;DHT22;10390;53.566;9.980;2022-07-12T10:11:23;26.40;1.00
20463;DHT22;10390;53.566;9.980;2022-07-12T10:13:51;26.50;1.00
20463;DHT22;10390;53.566;9.980;2022-07-12T10:16:25;26.50;1.00
20463;DHT22;10390;53.566;9.980;2022-07-12T10:19:29;26.50;1.00
20463;DHT22;10390;53.566;9.980;2022-07-12T10:21:59;26.50;1.00
20463;DHT22;10390;53.566;9.980;2022-07-12T10:29:45;26.50;1.00
20463;DHT22;10390;53.566;9.980;2022-07-12T10:32:22;26.50;1.00
20463;DHT22;10390;53.566;9.980;2022-07-12T10:37:32;26.50;1.00
20463;DHT22;10390;53.566;9.980;2022-07-12T10:40:18;26.50;1.00
20463;DHT22;10390;53.566;9.980;2022-07-12T10:45:35;26.60;1.00
20463;DHT22;10390;53.566;9.980;2022-07-12T10:56:20;26.50;1.00
20463;DHT22;10390;53.566;9.980;2022-07-12T10:58:58;26.50;1.00
20463;DHT22;10390;53.566;9.980;2022-07-12T11:01:29;26.50;1.00
20463;DHT22;10390;53.566;9.980;2022-07-12T11:04:04;26.50;1.00
20463;DHT22;10390;53.566;9.980;2022-07-12T11:06:35;26.50;1.00
20463;DHT22;10390;53.566;9.980;2022-07-12T11:09:05;26.50;1.00
20463;DHT22;10390;53.566;9.980;2022-07-12T11:11:41;26.50;1.00
20463;DHT22;10390;53.566;9.980;2022-07-12T11:14:09;26.60;1.00
20463;DHT22;10390;53.566;9.980;2022-07-12T11:16:47;26.60;1.00
20463;DHT22;10390;53.566;9.980;2022-07-12T11:19:14;26.60;1.00
20463;DHT22;10390;53.566;9.980;2022-07-12T11:21:44;26.50;1.00
20463;DHT22;10390;53.566;9.980;2022-07-12T11:24:18;26.50;1.00
20463;DHT22;10390;53.566;9.980;2022-07-12T11:26:47;26.50;1.00
20463;DHT22;10390;53.566;9.980;2022-07-12T11:29:13;26.60;1.00
20463;DHT22;10390;53.566;9.980;2022-07-12T11:31:39;26.60;1.00
20463;DHT22;10390;53.566;9.980;2022-07-12T11:34:05;26.60;1.00
20463;DHT22;10390;53.566;9.980;2022-07-12T11:36:32;26.60;1.00
20463;DHT22;10390;53.566;9.980;2022-07-12T11:38:59;26.60;1.00
20463;DHT22;10390;53.566;9.980;2022-07-12T11:41:28;26.60;1.00
20463;DHT22;10390;53.566;9.980;2022-07-12T11:43:54;26.60;1.00
20463;DHT22;10390;53.566;9.980;2022-07-12T11:46:19;26.60;1.00
20463;DHT22;10390;53.566;9.980;2022-07-12T11:48:48;26.60;1.00
20463;DHT22;10390;53.566;9.980;2022-07-12T11:51:14;26.60;1.00
20463;DHT22;10390;53.566;9.980;2022-07-12T11:53:40;26.70;1.00
20463;DHT22;10390;53.566;9.980;2022-07-12T11:56:08;26.70;1.00
20463;DHT22;10390;53.566;9.980;2022-07-12T11:58:35;26.70;1.00
20463;DHT22;10390;53.566;9.980;2022-07-12T12:01:04;26.70;1.00
20463;DHT22;10390;53.566;9.980;2022-07-12T12:03:42;26.70;1.00
20463;DHT22;10390;53.566;9.980;2022-07-12T12:06:09;26.70;1.00
20463;DHT22;10390;53.566;9.980;2022-07-12T12:08:35;26.70;1.00
20463;DHT22;10390;53.566;9.980;2022-07-12T12:11:01;26.70;1.00
20463;DHT22;10390;53.566;9.980;2022-07-12T12:13:29;26.70;1.00
20463;DHT22;10390;53.566;9.980;2022-07-12T12:15:57;26.70;1.00
20463;DHT22;10390;53.566;9.980;2022-07-12T12:21:01;26.70;1.00
20463;DHT22;10390;53.566;9.980;2022-07-12T12:23:29;26.70;1.00
20463;DHT22;10390;53.566;9.980;2022-07-12T12:26:15;26.70;1.00
20463;DHT22;10390;53.566;9.980;2022-07-12T12:28:53;26.70;1.00
20463;DHT22;10390;53.566;9.980;2022-07-12T12:31:21;26.80;1.00
20463;DHT22;10390;53.566;9.980;2022-07-12T12:33:50;26.70;1.00
20463;DHT22;10390;53.566;9.980;2022-07-12T12:36:29;26.70;1.00
20463;DHT22;10390;53.566;9.980;2022-07-12T12:39:02;26.80;1.00
20463;DHT22;10390;53.566;9.980;2022-07-12T12:41:30;26.80;1.00
20463;DHT22;10390;53.566;9.980;2022-07-12T12:44:05;26.70;1.00
20463;DHT22;10390;53.566;9.980;2022-07-12T12:46:52;26.80;1.00
20463;DHT22;10390;53.566;9.980;2022-07-12T12:49:44;26.70;1.00
20463;DHT22;10390;53.566;9.980;2022-07-12T12:52:11;26.70;1.00
20463;DHT22;10390;53.566;9.980;2022-07-12T12:54:37;26.70;1.00
20463;DHT22;10390;53.566;9.980;2022-07-12T12:57:07;26.70;1.00
20463;DHT22;10390;53.566;9.980;2022-07-12T12:59:34;26.70;1.00
20463;DHT22;10390;53.566;9.980;2022-07-12T13:02:02;26.70;1.00
20463;DHT22;10390;53.566;9.980;2022-07-12T13:04:30;26.70;1.00
20463;DHT22;10390;53.566;9.980;2022-07-12T13:06:57;26.70;1.00
20463;DHT22;10390;53.566;9.980;2022-07-12T13:09:25;26.70;1.00
20463;DHT22;10390;53.566;9.980;2022-07-12T13:11:51;26.70;1.00
20463;DHT22;10390;53.566;9.980;2022-07-12T13:14:17;26.70;1.00
20463;DHT22;10390;53.566;9.980;2022-07-12T13:16:42;26.70;1.00
20463;DHT22;10390;53.566;9.980;2022-07-12T13:19:08;26.70;1.00
20463;DHT22;10390;53.566;9.980;2022-07-12T13:21:34;26.70;1.00
20463;DHT22;10390;53.566;9.980;2022-07-12T13:24:00;26.70;1.00
20463;DHT22;10390;53.566;9.980;2022-07-12T13:26:26;26.70;1.00
20463;DHT22;10390;53.566;9.980;2022-07-12T13:28:56;26.70;1.00
20463;DHT22;10390;53.566;9.980;2022-07-12T13:31:22;26.70;1.00
20463;DHT22;10390;53.566;9.980;2022-07-12T13:33:48;26.70;1.00
20463;DHT22;10390;53.566;9.980;2022-07-12T13:36:14;26.70;1.00
20463;DHT22;10390;53.566;9.980;2022-07-12T13:38:41;26.70;1.00
20463;DHT22;10390;53.566;9.980;2022-07-12T13:41:07;26.70;1.00
20463;DHT22;10390;53.566;9.980;2022-07-12T13:43:33;26.70;1.00
20463;DHT22;10390;53.566;9.980;2022-07-12T13:45:59;26.70;1.00
20463;DHT22;10390;53.566;9.980;2022-07-12T13:48:26;26.70;1.00
20463;DHT22;10390;53.566;9.980;2022-07-12T13:51:14;26.70;1.00
20463;DHT22;10390;53.566;9.980;2022-07-12T13:53:41;26.70;1.00
20463;DHT22;10390;53.566;9.980;2022-07-12T13:56:06;26.70;1.00
20463;DHT22;10390;53.566;9.980;2022-07-12T13:58:32;26.70;1.00
20463;DHT22;10390;53.566;9.980;2022-07-12T14:00:58;26.70;1.00
20463;DHT22;10390;53.566;9.980;2022-07-12T14:03:30;26.70;1.00
20463;DHT22;10390;53.566;9.980;2022-07-12T14:05:56;26.70;1.00
20463;DHT22;10390;53.566;9.980;2022-07-12T14:08:22;26.70;1.00
20463;DHT22;10390;53.566;9.980;2022-07-12T14:10:47;26.70;1.00
20463;DHT22;10390;53.566;9.980;2022-07-12T14:13:13;26.70;1.00
20463;DHT22;10390;53.566;9.980;2022-07-12T14:15:39;26.70;1.00
20463;DHT22;10390;53.566;9.980;2022-07-12T14:18:07;26.70;1.00
20463;DHT22;10390;53.566;9.980;2022-07-12T14:20:38;26.70;1.00
20463;DHT22;10390;53.566;9.980;2022-07-12T14:23:04;26.70;1.00
20463;DHT22;10390;53.566;9.980;2022-07-12T14:25:33;26.70;1.00
20463;DHT22;10390;53.566;9.980;2022-07-12T14:28:02;26.70;1.00
20463;DHT22;10390;53.566;9.980;2022-07-12T14:30:27;26.70;1.00
20463;DHT22;10390;53.566;9.980;2022-07-12T14:32:53;26.70;1.00
20463;DHT22;10390;53.566;9.980;2022-07-12T14:35:19;26.70;1.00
20463;DHT22;10390;53.566;9.980;2022-07-12T14:37:48;26.70;1.00
20463;DHT22;10390;53.566;9.980;2022-07-12T14:40:14;26.70;1.00
20463;DHT22;10390;53.566;9.980;2022-07-12T14:42:40;26.70;1.00
20463;DHT22;10390;53.566;9.980;2022-07-12T14:45:07;26.80;1.00
20463;DHT22;10390;53.566;9.980;2022-07-12T14:47:34;26.70;1.00
20463;DHT22;10390;53.566;9.980;2022-07-12T14:49:59;26.70;1.00
20463;DHT22;10390;53.566;9.980;2022-07-12T14:52:27;26.70;1.00
20463;DHT22;10390;53.566;9.980;2022-07-12T14:54:53;26.70;1.00
20463;DHT22;10390;53.566;9.980;2022-07-12T14:57:19;26.80;1.00
20463;DHT22;10390;53.566;9.980;2022-07-12T14:59:44;26.80;1.00
20463;DHT22;10390;53.566;9.980;2022-07-12T15:02:10;26.70;1.00
20463;DHT22;10390;53.566;9.980;2022-07-12T15:04:36;26.80;1.00
20463;DHT22;10390;53.566;9.980;2022-07-12T15:07:03;26.70;1.00
20463;DHT22;10390;53.566;9.980;2022-07-12T15:09:29;26.70;1.00
20463;DHT22;10390;53.566;9.980;2022-07-12T15:11:55;26.70;1.00
20463;DHT22;10390;53.566;9.980;2022-07-12T15:14:21;26.70;1.00
20463;DHT22;10390;53.566;9.980;2022-07-12T15:16:47;26.80;1.00
20463;DHT22;10390;53.566;9.980;2022-07-12T15:19:13;26.80;1.00
20463;DHT22;10390;53.566;9.980;2022-07-12T15:21:40;26.80;1.00
20463;DHT22;10390;53.566;9.980;2022-07-12T15:24:06;26.80;1.00
20463;DHT22;10390;53.566;9.980;2022-07-12T15:26:32;26.80;1.00
20463;DHT22;10390;53.566;9.980;2022-07-12T15:29:02;26.70;1.00
20463;DHT22;10390;53.566;9.980;2022-07-12T15:31:29;26.80;1.00
20463;DHT22;10390;53.566;9.980;2022-07-12T15:33:57;26.70;1.00
20463;DHT22;10390;53.566;9.980;2022-07-12T15:36:23;26.70;1.00
20463;DHT22;10390;53.566;9.980;2022-07-12T15:38:49;26.80;1.00
20463;DHT22;10390;53.566;9.980;2022-07-12T15:41:15;26.80;1.00
20463;DHT22;10390;53.566;9.980;2022-07-12T15:43:41;26.80;1.00
20463;DHT22;10390;53.566;9.980;2022-07-12T15:46:08;26.70;1.00
20463;DHT22;10390;53.566;9.980;2022-07-12T15:48:36;26.70;1.00
20463;DHT22;10390;53.566;9.980;2022-07-12T15:51:04;26.80;1.00
20463;DHT22;10390;53.566;9.980;2022-07-12T15:53:30;26.80;1.00
20463;DHT22;10390;53.566;9.980;2022-07-12T15:56:08;26.80;1.00
20463;DHT22;10390;53.566;9.980;2022-07-12T15:58:39;26.80;1.00
20463;DHT22;10390;53.566;9.980;2022-07-12T16:01:07;26.80;1.00
20463;DHT22;10390;53.566;9.980;2022-07-12T16:03:34;26.80;1.00
20463;DHT22;10390;53.566;9.980;2022-07-12T16:06:02;26.80;1.00
20463;DHT22;10390;53.566;9.980;2022-07-12T16:08:29;26.80;1.00
20463;DHT22;10390;53.566;9.980;2022-07-12T16:10:56;26.80;1.00